Time;durP1;ratioP1;P1;durP2;ratioP2;P2;SDS_P1;SDS_P2;PMS_P1;PMS_P2;Temp;Humidity;BMP_temperature;BMP_pressure;BME280_temperature;BME280_humidity;BME280_pressure;Samples;Min_cycle;Max_cycle;Signal;HPM_P1;HPM_P2
2023/09/02 00:01:23;;;;;;;4.87;1.80;;;;;;;;;;5087083;28;20626;-65
2023/09/02 00:03:53;;;;;;;4.57;2.47;;;;;;;;;;5086375;28;20703;-64
2023/09/02 00:06:21;;;;;;;1.80;1.60;;;;;;;;;;5098065;28;20634;-66
2023/09/02 00:08:49;;;;;;;2.40;1.67;;;;;;;;;;5108049;28;20640;-63
2023/09/02 00:11:17;;;;;;;2.10;2.00;;;;;;;;;;5106561;28;20640;-65
2023/09/02 00:13:46;;;;;;;1.83;1.57;;;;;;;;;;5107051;28;20637;-65
2023/09/02 00:16:14;;;;;;;3.43;1.70;;;;;;;;;;5106416;28;20621;-64
2023/09/02 00:18:42;;;;;;;1.50;1.40;;;;;;;;;;5106877;28;21050;-66
2023/09/02 00:21:12;;;;;;;4.33;2.37;;;;;;;;;;5105770;28;20661;-66
2023/09/02 00:23:45;;;;;;;2.60;2.23;;;;;;;;;;5105095;28;20653;-64
2023/09/02 00:26:13;;;;;;;5.17;1.83;;;;;;;;;;5106105;28;20614;-64
2023/09/02 00:28:44;;;;;;;4.43;1.50;;;;;;;;;;5107550;28;20617;-65
2023/09/02 00:31:12;;;;;;;2.30;1.53;;;;;;;;;;5106181;28;20613;-66
2023/09/02 00:33:41;;;;;;;1.70;1.53;;;;;;;;;;5104953;28;20668;-65
2023/09/02 00:36:09;;;;;;;5.67;2.17;;;;;;;;;;5106907;28;20668;-64
2023/09/02 00:38:40;;;;;;;2.20;1.70;;;;;;;;;;5101374;28;20690;-64
2023/09/02 00:41:11;;;;;;;7.43;1.63;;;;;;;;;;5106973;28;20656;-65
2023/09/02 00:43:40;;;;;;;2.77;1.80;;;;;;;;;;5109845;28;20633;-64
2023/09/02 00:46:10;;;;;;;8.70;2.03;;;;;;;;;;5105435;28;20665;-65
2023/09/02 00:48:38;;;;;;;2.00;1.90;;;;;;;;;;5111161;28;20656;-64
2023/09/02 00:51:06;;;;;;;2.40;1.97;;;;;;;;;;5109878;28;20649;-64
2023/09/02 00:53:34;;;;;;;4.17;2.07;;;;;;;;;;5111056;28;20673;-65
2023/09/02 00:56:04;;;;;;;2.10;1.40;;;;;;;;;;5111029;28;20632;-65
2023/09/02 00:58:33;;;;;;;6.37;1.50;;;;;;;;;;5111154;28;20641;-65
2023/09/02 01:01:02;;;;;;;2.40;1.30;;;;;;;;;;5103353;28;20695;-68
2023/09/02 01:03:31;;;;;;;1.37;1.27;;;;;;;;;;5072530;28;20706;-68
2023/09/02 01:05:59;;;;;;;2.43;2.33;;;;;;;;;;5083221;28;20612;-69
2023/09/02 01:08:27;;;;;;;4.80;2.40;;;;;;;;;;5093756;28;20653;-68
2023/09/02 01:10:58;;;;;;;2.37;2.17;;;;;;;;;;5094384;28;20613;-68
2023/09/02 01:13:28;;;;;;;2.67;2.30;;;;;;;;;;5093682;28;20968;-68
2023/09/02 01:15:56;;;;;;;2.90;2.70;;;;;;;;;;5110089;28;20605;-68
2023/09/02 01:18:25;;;;;;;2.20;2.00;;;;;;;;;;5094104;28;21015;-68
2023/09/02 01:21:04;;;;;;;2.20;2.10;;;;;;;;;;5093464;28;20609;-68
2023/09/02 01:23:45;;;;;;;2.97;2.77;;;;;;;;;;5093568;28;20595;-69
2023/09/02 01:26:20;;;;;;;4.37;1.90;;;;;;;;;;5093523;28;21173;-68
2023/09/02 01:28:50;;;;;;;2.00;1.83;;;;;;;;;;5092389;28;20585;-68
2023/09/02 01:31:19;;;;;;;1.67;1.57;;;;;;;;;;5093669;28;20600;-69
2023/09/02 01:33:52;;;;;;;2.67;2.47;;;;;;;;;;5093351;28;20661;-69
2023/09/02 01:36:23;;;;;;;4.10;2.20;;;;;;;;;;5092300;28;20597;-68
2023/09/02 01:38:53;;;;;;;2.80;2.13;;;;;;;;;;5093848;28;20613;-68
2023/09/02 01:41:22;;;;;;;2.20;2.10;;;;;;;;;;5093733;28;20677;-68
2023/09/02 01:43:52;;;;;;;2.50;1.97;;;;;;;;;;5092742;28;20604;-69
2023/09/02 01:46:21;;;;;;;2.27;1.50;;;;;;;;;;5093403;28;20624;-68
2023/09/02 01:48:49;;;;;;;4.00;1.77;;;;;;;;;;5093410;28;20701;-68
2023/09/02 01:51:18;;;;;;;1.70;1.60;;;;;;;;;;5092884;28;20627;-68
2023/09/02 01:53:47;;;;;;;1.83;1.70;;;;;;;;;;5091749;28;20661;-69
2023/09/02 01:56:15;;;;;;;2.27;2.00;;;;;;;;;;5093056;28;20629;-68
2023/09/02 01:58:44;;;;;;;2.10;1.60;;;;;;;;;;5091640;28;20635;-68
2023/09/02 02:01:14;;;;;;;1.70;1.33;;;;;;;;;;5108763;27;20628;-69
2023/09/02 02:03:48;;;;;;;6.27;1.63;;;;;;;;;;5087583;28;20675;-68
2023/09/02 02:06:17;;;;;;;2.40;1.93;;;;;;;;;;5082270;28;20657;-68
2023/09/02 02:08:48;;;;;;;1.40;1.30;;;;;;;;;;5091369;28;20628;-68
2023/09/02 02:11:17;;;;;;;2.20;2.00;;;;;;;;;;5092099;28;20613;-68
2023/09/02 02:13:45;;;;;;;2.20;1.73;;;;;;;;;;5073941;28;20658;-68
2023/09/02 02:16:15;;;;;;;4.20;1.97;;;;;;;;;;5092155;28;20636;-69
2023/09/02 02:18:43;;;;;;;1.60;1.50;;;;;;;;;;5093299;28;20592;-68
2023/09/02 02:21:12;;;;;;;2.43;1.37;;;;;;;;;;5091890;28;20956;-68
2023/09/02 02:23:40;;;;;;;4.40;1.93;;;;;;;;;;5093045;28;20673;-68
2023/09/02 02:26:08;;;;;;;2.17;2.00;;;;;;;;;;5091838;28;20690;-70
2023/09/02 02:28:38;;;;;;;2.10;1.90;;;;;;;;;;5092388;28;20628;-68
2023/09/02 02:31:06;;;;;;;2.00;1.83;;;;;;;;;;5092126;28;20629;-68
2023/09/02 02:33:37;;;;;;;1.70;1.60;;;;;;;;;;5090925;28;21153;-68
2023/09/02 02:36:05;;;;;;;1.83;1.60;;;;;;;;;;5092818;28;20597;-67
2023/09/02 02:38:35;;;;;;;1.53;1.43;;;;;;;;;;5092505;28;20564;-68
2023/09/02 02:41:04;;;;;;;1.50;1.40;;;;;;;;;;5085033;28;20621;-68
2023/09/02 02:43:33;;;;;;;4.20;1.67;;;;;;;;;;5092599;28;20971;-70
2023/09/02 02:46:01;;;;;;;2.40;1.83;;;;;;;;;;5090627;28;20625;-68
2023/09/02 02:48:30;;;;;;;1.70;1.50;;;;;;;;;;5092245;28;20628;-70
2023/09/02 02:51:00;;;;;;;2.60;1.90;;;;;;;;;;5092075;28;20637;-70
2023/09/02 02:53:28;;;;;;;7.13;1.60;;;;;;;;;;5091382;28;20653;-69
2023/09/02 02:56:02;;;;;;;2.30;1.73;;;;;;;;;;5090424;28;20612;-68
2023/09/02 02:58:32;;;;;;;3.90;1.97;;;;;;;;;;5091834;28;20626;-69
2023/09/02 03:01:05;;;;;;;1.97;1.70;;;;;;;;;;5090069;28;20587;-68
2023/09/02 03:03:33;;;;;;;5.10;1.40;;;;;;;;;;5087825;28;20658;-69
2023/09/02 03:06:04;;;;;;;1.70;1.60;;;;;;;;;;5089060;28;21259;-68
2023/09/02 03:08:32;;;;;;;2.40;2.20;;;;;;;;;;5091736;28;20647;-69
2023/09/02 03:11:01;;;;;;;1.87;1.30;;;;;;;;;;5090198;28;21182;-69
2023/09/02 03:13:33;;;;;;;3.90;1.77;;;;;;;;;;5090966;28;20633;-69
2023/09/02 03:16:04;;;;;;;2.70;1.90;;;;;;;;;;5090643;28;20631;-69
2023/09/02 03:18:33;;;;;;;2.33;1.60;;;;;;;;;;5090624;28;20955;-69
2023/09/02 03:21:07;;;;;;;4.07;2.33;;;;;;;;;;5090821;28;20917;-68
2023/09/02 03:23:36;;;;;;;1.83;1.73;;;;;;;;;;5090656;28;20619;-68
2023/09/02 03:26:08;;;;;;;3.00;1.60;;;;;;;;;;5091327;28;20622;-68
2023/09/02 03:28:38;;;;;;;8.40;2.00;;;;;;;;;;5090981;28;20965;-68
2023/09/02 03:31:09;;;;;;;2.13;1.37;;;;;;;;;;5091409;28;21153;-69
2023/09/02 03:33:38;;;;;;;1.73;1.60;;;;;;;;;;5089774;28;20661;-68
2023/09/02 03:36:09;;;;;;;3.20;1.90;;;;;;;;;;5091176;28;21215;-69
2023/09/02 03:38:37;;;;;;;2.03;1.77;;;;;;;;;;5091192;28;20627;-69
2023/09/02 03:41:11;;;;;;;2.60;1.70;;;;;;;;;;5091033;28;20631;-69
2023/09/02 03:43:39;;;;;;;3.30;2.30;;;;;;;;;;5091709;28;20593;-68
2023/09/02 03:46:07;;;;;;;1.80;1.70;;;;;;;;;;5091287;28;21055;-68
2023/09/02 03:48:36;;;;;;;2.40;2.27;;;;;;;;;;5091370;28;20609;-69
2023/09/02 03:51:05;;;;;;;5.30;2.13;;;;;;;;;;5091396;28;20609;-69
2023/09/02 03:53:37;;;;;;;3.97;2.03;;;;;;;;;;5090139;28;21035;-69
2023/09/02 03:56:06;;;;;;;3.17;2.40;;;;;;;;;;5091479;28;20603;-69
2023/09/02 03:58:36;;;;;;;8.23;2.30;;;;;;;;;;5090439;28;20654;-69
2023/09/02 04:01:05;;;;;;;4.20;1.90;;;;;;;;;;5090659;28;20619;-69
2023/09/02 04:03:35;;;;;;;2.30;1.90;;;;;;;;;;5089969;28;20652;-69
2023/09/02 04:06:05;;;;;;;2.20;2.00;;;;;;;;;;5076767;28;20663;-68
2023/09/02 04:08:34;;;;;;;2.23;2.03;;;;;;;;;;5071712;28;20610;-69
2023/09/02 04:11:04;;;;;;;1.70;1.60;;;;;;;;;;5069250;28;21405;-69
2023/09/02 04:13:32;;;;;;;2.20;1.90;;;;;;;;;;5085135;28;20635;-68
2023/09/02 04:16:09;;;;;;;3.47;1.83;;;;;;;;;;5091163;28;20965;-69
2023/09/02 04:18:38;;;;;;;2.03;1.93;;;;;;;;;;5094849;28;20631;-68
2023/09/02 04:21:08;;;;;;;2.70;2.50;;;;;;;;;;5094877;28;21025;-69
2023/09/02 04:23:38;;;;;;;4.13;2.00;;;;;;;;;;5091291;28;20816;-69
2023/09/02 04:26:11;;;;;;;3.97;2.63;;;;;;;;;;5087182;28;20600;-69
2023/09/02 04:28:40;;;;;;;2.10;2.00;;;;;;;;;;5092630;28;20625;-68
2023/09/02 04:31:08;;;;;;;1.90;1.80;;;;;;;;;;5086530;28;21206;-68
2023/09/02 04:33:38;;;;;;;2.40;2.20;;;;;;;;;;5094536;28;20664;-69
2023/09/02 04:36:07;;;;;;;2.90;2.53;;;;;;;;;;5093736;28;20614;-69
2023/09/02 04:38:40;;;;;;;6.33;1.93;;;;;;;;;;5093404;28;20631;-68
2023/09/02 04:41:09;;;;;;;4.83;3.20;;;;;;;;;;5088716;28;20630;-69
2023/09/02 04:43:39;;;;;;;6.10;2.50;;;;;;;;;;5093848;28;21178;-68
2023/09/02 04:46:09;;;;;;;4.00;3.57;;;;;;;;;;5093920;28;20584;-69
2023/09/02 04:48:41;;;;;;;4.07;3.63;;;;;;;;;;5094404;28;20597;-68
2023/09/02 04:51:10;;;;;;;3.90;3.40;;;;;;;;;;5086986;28;20667;-68
2023/09/02 04:53:39;;;;;;;2.60;2.50;;;;;;;;;;5092713;28;20661;-69
2023/09/02 04:56:08;;;;;;;2.20;2.10;;;;;;;;;;5076403;28;20651;-69
2023/09/02 04:58:39;;;;;;;4.10;3.00;;;;;;;;;;5094020;28;20635;-68
2023/09/02 05:01:11;;;;;;;4.53;3.40;;;;;;;;;;5092438;28;21166;-69
2023/09/02 05:03:41;;;;;;;3.80;3.37;;;;;;;;;;5091390;28;20653;-69
2023/09/02 05:06:10;;;;;;;4.40;2.93;;;;;;;;;;5093313;28;20620;-69
2023/09/02 05:08:42;;;;;;;4.27;2.80;;;;;;;;;;5093066;28;21145;-68
2023/09/02 05:11:10;;;;;;;2.50;2.30;;;;;;;;;;5092955;28;21044;-69
2023/09/02 05:13:40;;;;;;;2.17;1.97;;;;;;;;;;5092470;28;20634;-69
2023/09/02 05:16:09;;;;;;;3.33;2.90;;;;;;;;;;5093337;28;20606;-69
2023/09/02 05:18:37;;;;;;;3.27;2.43;;;;;;;;;;5092495;28;20625;-68
2023/09/02 05:21:06;;;;;;;10.23;3.40;;;;;;;;;;5094059;28;20621;-68
2023/09/02 05:23:34;;;;;;;2.27;2.10;;;;;;;;;;5093812;28;20633;-69
2023/09/02 05:26:04;;;;;;;5.27;2.73;;;;;;;;;;5092890;28;21021;-68
2023/09/02 05:28:33;;;;;;;6.40;2.90;;;;;;;;;;5092439;28;20621;-68
2023/09/02 05:31:02;;;;;;;4.30;3.60;;;;;;;;;;5094051;28;20629;-68
2023/09/02 05:33:31;;;;;;;3.23;3.03;;;;;;;;;;5093130;28;20656;-68
2023/09/02 05:35:59;;;;;;;4.43;4.03;;;;;;;;;;5093895;28;20633;-68
2023/09/02 05:38:27;;;;;;;4.30;3.43;;;;;;;;;;5091784;28;20643;-68
2023/09/02 05:40:55;;;;;;;8.43;4.53;;;;;;;;;;5093149;28;20617;-68
2023/09/02 05:43:24;;;;;;;4.20;3.00;;;;;;;;;;5090135;28;21197;-68
2023/09/02 05:45:52;;;;;;;4.87;3.60;;;;;;;;;;5091135;28;20685;-69
2023/09/02 05:48:22;;;;;;;3.77;3.40;;;;;;;;;;5092927;28;20613;-68
2023/09/02 05:50:50;;;;;;;4.83;3.53;;;;;;;;;;5092139;28;20998;-68
2023/09/02 05:53:18;;;;;;;5.13;4.27;;;;;;;;;;5089968;28;20629;-68
2023/09/02 05:55:54;;;;;;;3.63;3.33;;;;;;;;;;5092745;28;21022;-69
2023/09/02 05:58:22;;;;;;;3.77;3.57;;;;;;;;;;5093216;28;20985;-69
2023/09/02 06:00:50;;;;;;;3.83;3.43;;;;;;;;;;5092323;28;20632;-69
2023/09/02 06:03:18;;;;;;;10.90;5.03;;;;;;;;;;5091260;28;20661;-68
2023/09/02 06:05:48;;;;;;;7.43;4.47;;;;;;;;;;5089832;28;20636;-68
2023/09/02 06:08:17;;;;;;;7.60;5.10;;;;;;;;;;5092983;28;20621;-67
2023/09/02 06:10:45;;;;;;;4.83;4.43;;;;;;;;;;5089909;28;20613;-68
2023/09/02 06:13:14;;;;;;;7.10;4.90;;;;;;;;;;5092585;28;20667;-68
2023/09/02 06:15:42;;;;;;;5.83;5.33;;;;;;;;;;5090535;28;20657;-67
2023/09/02 06:18:10;;;;;;;5.40;4.80;;;;;;;;;;5091552;28;20636;-68
2023/09/02 06:20:38;;;;;;;9.30;5.23;;;;;;;;;;5092292;28;20639;-68
2023/09/02 06:23:08;;;;;;;4.97;4.53;;;;;;;;;;5090368;28;21174;-67
2023/09/02 06:25:36;;;;;;;5.30;4.80;;;;;;;;;;5082215;28;20630;-68
2023/09/02 06:28:04;;;;;;;5.73;5.20;;;;;;;;;;5089942;28;20629;-67
2023/09/02 06:30:33;;;;;;;5.53;5.00;;;;;;;;;;5090380;28;20646;-68
2023/09/02 06:33:01;;;;;;;7.40;4.97;;;;;;;;;;5091896;28;21178;-68
2023/09/02 06:35:31;;;;;;;5.63;4.73;;;;;;;;;;5092231;28;20672;-69
2023/09/02 06:37:59;;;;;;;7.23;6.03;;;;;;;;;;5092210;28;20633;-66
2023/09/02 06:40:30;;;;;;;5.80;5.30;;;;;;;;;;5091959;28;20594;-67
2023/09/02 06:42:58;;;;;;;5.50;4.87;;;;;;;;;;5091395;28;20858;-67
2023/09/02 06:45:26;;;;;;;8.40;6.20;;;;;;;;;;5092050;28;20611;-66
2023/09/02 06:47:55;;;;;;;8.90;6.20;;;;;;;;;;5091902;28;20621;-67
2023/09/02 06:50:23;;;;;;;5.60;4.90;;;;;;;;;;5090638;28;21267;-67
2023/09/02 06:52:52;;;;;;;8.87;5.17;;;;;;;;;;5088943;28;20605;-69
2023/09/02 06:55:20;;;;;;;5.47;4.50;;;;;;;;;;5091878;28;20665;-69
2023/09/02 06:57:49;;;;;;;7.00;5.53;;;;;;;;;;5091518;28;20640;-67
2023/09/02 07:00:17;;;;;;;4.47;4.07;;;;;;;;;;5086139;28;20633;-67
2023/09/02 07:02:45;;;;;;;5.40;4.90;;;;;;;;;;5090715;28;20997;-67
2023/09/02 07:05:13;;;;;;;7.27;5.87;;;;;;;;;;5081620;28;20692;-65
2023/09/02 07:07:41;;;;;;;6.43;5.77;;;;;;;;;;5097247;28;21017;-65
2023/09/02 07:10:10;;;;;;;4.60;4.10;;;;;;;;;;5101910;28;20953;-65
2023/09/02 07:12:38;;;;;;;4.40;4.00;;;;;;;;;;5101760;28;20621;-65
2023/09/02 07:15:09;;;;;;;4.17;3.77;;;;;;;;;;5101405;28;20720;-65
2023/09/02 07:17:37;;;;;;;3.97;3.53;;;;;;;;;;5101530;28;20604;-64
2023/09/02 07:20:05;;;;;;;4.93;3.50;;;;;;;;;;5102113;28;20616;-64
2023/09/02 07:22:33;;;;;;;3.80;3.50;;;;;;;;;;5100275;28;20992;-64
2023/09/02 07:25:01;;;;;;;6.93;3.73;;;;;;;;;;5100017;28;20633;-66
2023/09/02 07:27:29;;;;;;;4.20;3.90;;;;;;;;;;5098143;28;20717;-65
2023/09/02 07:29:59;;;;;;;5.90;4.80;;;;;;;;;;5099188;28;20630;-64
2023/09/02 07:32:29;;;;;;;3.80;3.50;;;;;;;;;;5101333;28;20601;-65
2023/09/02 07:34:57;;;;;;;3.93;2.87;;;;;;;;;;5100239;28;21092;-65
2023/09/02 07:37:25;;;;;;;4.23;3.83;;;;;;;;;;5100504;28;20692;-67
2023/09/02 07:39:54;;;;;;;2.97;2.10;;;;;;;;;;5101933;28;20704;-65
2023/09/02 07:42:23;;;;;;;2.50;2.20;;;;;;;;;;5098694;28;20680;-65
2023/09/02 07:44:51;;;;;;;4.40;3.13;;;;;;;;;;5101279;28;21221;-65
2023/09/02 07:47:19;;;;;;;3.43;3.13;;;;;;;;;;5098524;28;20804;-66
2023/09/02 07:49:48;;;;;;;4.43;2.97;;;;;;;;;;5093462;28;20721;-65
2023/09/02 07:52:17;;;;;;;2.33;2.20;;;;;;;;;;5092716;28;21033;-66
2023/09/02 07:54:46;;;;;;;2.40;2.20;;;;;;;;;;5098815;28;21129;-65
2023/09/02 07:57:14;;;;;;;2.13;2.03;;;;;;;;;;5097866;28;20743;-66
2023/09/02 07:59:42;;;;;;;7.90;6.53;;;;;;;;;;5100396;28;20692;-66
2023/09/02 08:02:10;;;;;;;2.90;2.47;;;;;;;;;;5100308;28;21163;-66
2023/09/02 08:04:38;;;;;;;4.53;2.40;;;;;;;;;;5096406;28;20736;-67
2023/09/02 08:07:08;;;;;;;2.73;2.53;;;;;;;;;;5106835;28;20677;-66
2023/09/02 08:09:36;;;;;;;4.67;2.63;;;;;;;;;;5106732;28;20710;-67
2023/09/02 08:12:05;;;;;;;6.90;2.90;;;;;;;;;;5105101;28;20700;-67
2023/09/02 08:14:33;;;;;;;2.87;2.57;;;;;;;;;;5113326;28;20695;-64
2023/09/02 08:17:01;;;;;;;4.47;3.50;;;;;;;;;;5099864;28;20721;-66
2023/09/02 08:19:32;;;;;;;3.40;3.10;;;;;;;;;;5100121;28;20632;-64
2023/09/02 08:22:00;;;;;;;3.30;3.00;;;;;;;;;;5097166;28;20754;-65
2023/09/02 08:24:30;;;;;;;2.80;2.50;;;;;;;;;;5090458;28;20717;-64
2023/09/02 08:26:58;;;;;;;3.70;3.40;;;;;;;;;;5095614;28;20677;-65
2023/09/02 08:29:27;;;;;;;2.87;2.67;;;;;;;;;;5090881;28;20757;-66
2023/09/02 08:31:55;;;;;;;2.83;2.63;;;;;;;;;;5098591;28;20717;-69
2023/09/02 08:34:24;;;;;;;3.67;3.03;;;;;;;;;;5101210;28;20733;-65
2023/09/02 08:36:52;;;;;;;2.90;2.70;;;;;;;;;;5101190;28;20732;-66
2023/09/02 08:39:20;;;;;;;4.17;3.73;;;;;;;;;;5100471;28;20681;-66
2023/09/02 08:41:50;;;;;;;4.20;2.83;;;;;;;;;;5101216;28;20727;-66
2023/09/02 08:44:18;;;;;;;5.23;3.40;;;;;;;;;;5100509;28;20692;-66
2023/09/02 08:46:47;;;;;;;3.00;2.70;;;;;;;;;;5100362;28;20711;-66
2023/09/02 08:49:17;;;;;;;3.70;3.40;;;;;;;;;;5100868;28;20701;-66
2023/09/02 08:51:45;;;;;;;10.47;2.90;;;;;;;;;;5101035;28;20716;-66
2023/09/02 08:54:14;;;;;;;3.40;3.20;;;;;;;;;;5096581;28;20688;-65
2023/09/02 08:56:46;;;;;;;4.90;4.00;;;;;;;;;;5093921;28;20740;-65
2023/09/02 08:59:16;;;;;;;3.27;2.97;;;;;;;;;;5098629;28;20625;-66
2023/09/02 09:01:45;;;;;;;5.40;3.90;;;;;;;;;;5099772;28;21199;-66
2023/09/02 09:04:15;;;;;;;4.87;4.47;;;;;;;;;;5102608;28;20790;-65
2023/09/02 09:06:43;;;;;;;3.60;3.30;;;;;;;;;;5102762;28;20716;-65
2023/09/02 09:09:12;;;;;;;2.60;2.40;;;;;;;;;;5104456;28;20704;-65
2023/09/02 09:11:41;;;;;;;5.90;4.60;;;;;;;;;;5105006;28;20689;-65
2023/09/02 09:14:11;;;;;;;5.30;3.17;;;;;;;;;;5103207;28;21038;-65
2023/09/02 09:16:43;;;;;;;3.40;2.47;;;;;;;;;;5102876;28;21088;-65
2023/09/02 09:19:11;;;;;;;4.60;3.10;;;;;;;;;;5115865;28;20665;-65
2023/09/02 09:21:40;;;;;;;4.20;2.87;;;;;;;;;;5104630;28;20718;-65
2023/09/02 09:24:12;;;;;;;4.13;2.57;;;;;;;;;;5102224;28;20708;-66
2023/09/02 09:26:42;;;;;;;3.73;2.30;;;;;;;;;;5100822;28;21480;-64
2023/09/02 09:29:12;;;;;;;3.33;2.93;;;;;;;;;;5100599;28;20772;-64
2023/09/02 09:31:42;;;;;;;9.93;2.80;;;;;;;;;;5102210;28;20690;-65
2023/09/02 09:34:11;;;;;;;2.97;2.47;;;;;;;;;;5101504;28;20709;-65
2023/09/02 09:36:39;;;;;;;3.30;2.73;;;;;;;;;;5102227;28;20744;-65
2023/09/02 09:39:08;;;;;;;7.00;3.03;;;;;;;;;;5101206;28;20736;-65
2023/09/02 09:41:37;;;;;;;2.90;2.13;;;;;;;;;;5102402;28;20685;-64
2023/09/02 09:44:06;;;;;;;3.80;2.40;;;;;;;;;;5100822;28;20712;-65
2023/09/02 09:46:35;;;;;;;3.60;2.30;;;;;;;;;;5101128;28;21001;-66
2023/09/02 09:49:04;;;;;;;2.27;2.10;;;;;;;;;;5099979;28;20692;-66
2023/09/02 09:51:33;;;;;;;2.47;2.27;;;;;;;;;;5082603;28;21225;-65
2023/09/02 09:54:01;;;;;;;2.70;2.10;;;;;;;;;;5096239;28;20701;-64
2023/09/02 09:56:29;;;;;;;3.40;2.70;;;;;;;;;;5100122;28;20740;-66
2023/09/02 09:59:07;;;;;;;2.40;2.20;;;;;;;;;;5089727;28;20766;-65
2023/09/02 10:01:36;;;;;;;2.37;2.20;;;;;;;;;;5099662;28;20708;-64
2023/09/02 10:04:09;;;;;;;2.80;2.17;;;;;;;;;;5093954;28;20725;-64
2023/09/02 10:06:41;;;;;;;2.50;1.70;;;;;;;;;;5091600;28;20657;-65
2023/09/02 10:09:09;;;;;;;2.40;2.10;;;;;;;;;;5102546;28;20656;-65
2023/09/02 10:11:37;;;;;;;2.83;2.23;;;;;;;;;;5100297;28;20696;-66
2023/09/02 10:14:05;;;;;;;2.27;2.07;;;;;;;;;;5101026;28;20692;-65
2023/09/02 10:16:36;;;;;;;3.27;2.20;;;;;;;;;;5099165;28;20743;-64
2023/09/02 10:19:05;;;;;;;2.03;1.93;;;;;;;;;;5098424;28;20704;-65
2023/09/02 10:21:36;;;;;;;4.30;2.00;;;;;;;;;;5100398;28;20692;-66
2023/09/02 10:24:05;;;;;;;3.83;2.20;;;;;;;;;;5098681;28;20755;-66
2023/09/02 10:26:37;;;;;;;2.93;2.50;;;;;;;;;;5097716;28;21178;-66
2023/09/02 10:29:08;;;;;;;2.43;2.23;;;;;;;;;;5100941;28;20726;-65
2023/09/02 10:31:39;;;;;;;3.00;2.70;;;;;;;;;;5099854;28;20680;-66
2023/09/02 10:34:09;;;;;;;3.27;2.30;;;;;;;;;;5098122;28;20700;-66
2023/09/02 10:36:41;;;;;;;3.03;2.13;;;;;;;;;;5098586;28;20713;-66
2023/09/02 10:39:11;;;;;;;2.30;2.10;;;;;;;;;;5098384;28;20680;-66
2023/09/02 10:41:39;;;;;;;2.57;2.37;;;;;;;;;;5097672;28;20708;-65
2023/09/02 10:44:08;;;;;;;2.13;1.87;;;;;;;;;;5098355;28;20685;-65
2023/09/02 10:46:36;;;;;;;2.13;1.93;;;;;;;;;;5097449;28;21279;-65
2023/09/02 10:49:04;;;;;;;3.37;2.20;;;;;;;;;;5097284;28;20689;-65
2023/09/02 10:51:33;;;;;;;2.73;2.53;;;;;;;;;;5097419;28;20693;-66
2023/09/02 10:54:04;;;;;;;4.03;2.27;;;;;;;;;;5094717;28;20644;-65
2023/09/02 10:56:33;;;;;;;4.00;2.70;;;;;;;;;;5096080;28;20644;-66
2023/09/02 10:59:02;;;;;;;2.90;2.77;;;;;;;;;;5095750;28;20617;-66
2023/09/02 11:01:44;;;;;;;3.37;2.63;;;;;;;;;;5095764;28;20640;-66
2023/09/02 11:04:12;;;;;;;4.10;2.73;;;;;;;;;;5088657;28;21089;-66
2023/09/02 11:06:55;;;;;;;2.47;2.30;;;;;;;;;;5093881;28;20674;-66
2023/09/02 11:09:38;;;;;;;2.60;2.50;;;;;;;;;;5094067;28;20704;-66
2023/09/02 11:12:11;;;;;;;3.13;2.93;;;;;;;;;;5094907;28;20708;-66
2023/09/02 11:14:40;;;;;;;4.03;3.73;;;;;;;;;;5093923;28;20637;-64
2023/09/02 11:17:27;;;;;;;5.37;4.87;;;;;;;;;;5095681;28;20645;-64
2023/09/02 11:19:56;;;;;;;6.53;6.10;;;;;;;;;;5096033;28;20720;-65
2023/09/02 11:22:42;;;;;;;7.07;6.67;;;;;;;;;;5095871;28;20655;-64
2023/09/02 11:25:11;;;;;;;6.80;6.40;;;;;;;;;;5092228;28;20625;-64
2023/09/02 11:27:46;;;;;;;7.80;7.20;;;;;;;;;;5093217;28;20674;-64
2023/09/02 11:30:15;;;;;;;8.40;7.90;;;;;;;;;;5093889;28;21083;-64
2023/09/02 11:32:44;;;;;;;8.00;7.60;;;;;;;;;;5094409;28;20601;-65
2023/09/02 11:35:12;;;;;;;8.50;8.10;;;;;;;;;;5093533;28;20661;-64
2023/09/02 11:37:41;;;;;;;7.90;7.50;;;;;;;;;;5094639;28;20653;-64
2023/09/02 11:40:15;;;;;;;8.90;8.40;;;;;;;;;;5093768;28;20621;-66
2023/09/02 11:42:52;;;;;;;8.20;7.80;;;;;;;;;;5094267;28;20624;-64
2023/09/02 11:45:20;;;;;;;8.13;7.83;;;;;;;;;;5093127;28;21253;-65
2023/09/02 11:47:49;;;;;;;9.10;8.70;;;;;;;;;;5094511;28;20984;-65
2023/09/02 11:50:18;;;;;;;9.37;8.87;;;;;;;;;;5093144;28;20613;-69
2023/09/02 11:52:47;;;;;;;8.73;8.33;;;;;;;;;;5093501;28;21142;-66
2023/09/02 11:55:15;;;;;;;9.77;9.00;;;;;;;;;;5091817;28;21208;-67
2023/09/02 11:57:44;;;;;;;8.57;8.23;;;;;;;;;;5091532;28;20665;-65
2023/09/02 12:00:17;;;;;;;10.27;9.77;;;;;;;;;;5092139;28;20646;-65
2023/09/02 12:02:45;;;;;;;8.53;8.23;;;;;;;;;;5090566;28;20619;-65
2023/09/02 12:05:14;;;;;;;8.87;8.47;;;;;;;;;;5091735;28;20675;-65
2023/09/02 12:07:43;;;;;;;9.70;9.23;;;;;;;;;;5094370;28;21001;-65
2023/09/02 12:10:12;;;;;;;10.40;9.70;;;;;;;;;;5091162;28;21187;-66
2023/09/02 12:12:41;;;;;;;9.37;8.80;;;;;;;;;;5093679;28;20622;-65
2023/09/02 12:15:12;;;;;;;9.00;8.60;;;;;;;;;;5092383;28;20702;-66
2023/09/02 12:17:42;;;;;;;9.10;8.70;;;;;;;;;;5094067;28;20647;-65
2023/09/02 12:20:12;;;;;;;10.73;8.60;;;;;;;;;;5091003;28;20689;-65
2023/09/02 12:22:41;;;;;;;8.67;8.27;;;;;;;;;;5093728;28;20625;-65
2023/09/02 12:25:15;;;;;;;8.90;8.50;;;;;;;;;;5092795;28;20618;-65
2023/09/02 12:27:44;;;;;;;9.60;8.80;;;;;;;;;;5093703;28;20587;-65
2023/09/02 12:30:13;;;;;;;9.53;9.00;;;;;;;;;;5092837;28;20632;-65
2023/09/02 12:32:46;;;;;;;10.07;9.37;;;;;;;;;;5092988;28;20716;-66
2023/09/02 12:35:14;;;;;;;9.33;8.93;;;;;;;;;;5093337;28;20657;-65
2023/09/02 12:37:42;;;;;;;9.47;9.17;;;;;;;;;;5094227;28;20992;-65
2023/09/02 12:40:12;;;;;;;9.23;8.93;;;;;;;;;;5096428;28;20625;-65
2023/09/02 12:42:40;;;;;;;9.27;8.87;;;;;;;;;;5093414;28;20634;-65
2023/09/02 12:45:09;;;;;;;9.17;8.77;;;;;;;;;;5097545;28;20632;-65
2023/09/02 12:47:39;;;;;;;9.23;8.70;;;;;;;;;;5094844;28;20617;-65
2023/09/02 12:50:09;;;;;;;9.67;8.97;;;;;;;;;;5093849;28;20629;-65
2023/09/02 12:52:38;;;;;;;9.67;9.17;;;;;;;;;;5096317;28;20597;-66
2023/09/02 12:55:07;;;;;;;10.13;9.27;;;;;;;;;;5092178;28;20621;-65
2023/09/02 12:57:36;;;;;;;9.57;8.97;;;;;;;;;;5097139;28;20661;-66
2023/09/02 13:00:06;;;;;;;9.40;9.00;;;;;;;;;;5096561;28;20605;-65
2023/09/02 13:02:36;;;;;;;9.00;8.50;;;;;;;;;;5095729;28;20601;-67
2023/09/02 13:05:04;;;;;;;9.40;9.00;;;;;;;;;;5084164;28;20661;-65
2023/09/02 13:07:34;;;;;;;9.13;8.83;;;;;;;;;;5094885;28;20973;-65
2023/09/02 13:10:02;;;;;;;9.03;8.63;;;;;;;;;;5081798;28;20629;-65
2023/09/02 13:12:30;;;;;;;9.10;8.70;;;;;;;;;;5094762;28;21184;-65
2023/09/02 13:14:59;;;;;;;9.57;9.10;;;;;;;;;;5094605;28;20625;-64
2023/09/02 13:17:27;;;;;;;9.33;8.83;;;;;;;;;;5095009;28;21173;-65
2023/09/02 13:19:55;;;;;;;9.40;9.00;;;;;;;;;;5094024;28;21193;-67
2023/09/02 13:22:24;;;;;;;9.87;9.37;;;;;;;;;;5096156;28;20629;-65
2023/09/02 13:24:53;;;;;;;10.10;9.60;;;;;;;;;;5095087;28;20613;-65
2023/09/02 13:27:22;;;;;;;9.80;9.30;;;;;;;;;;5096430;28;20692;-65
2023/09/02 13:29:50;;;;;;;9.73;9.27;;;;;;;;;;5093114;28;20632;-65
2023/09/02 13:32:23;;;;;;;9.07;8.60;;;;;;;;;;5094838;28;20757;-66
2023/09/02 13:34:53;;;;;;;10.17;9.77;;;;;;;;;;5094288;28;20234;-65
2023/09/02 13:37:30;;;;;;;10.00;9.47;;;;;;;;;;5095185;28;20636;-66
2023/09/02 13:40:02;;;;;;;10.03;9.53;;;;;;;;;;5094332;28;21163;-66
2023/09/02 13:42:30;;;;;;;10.20;9.53;;;;;;;;;;5094237;28;21006;-65
2023/09/02 13:45:03;;;;;;;10.37;9.83;;;;;;;;;;5093737;28;20696;-65
2023/09/02 13:47:31;;;;;;;9.50;9.00;;;;;;;;;;5094220;28;20614;-66
2023/09/02 13:50:00;;;;;;;10.60;9.90;;;;;;;;;;5092431;28;20974;-65
2023/09/02 13:52:29;;;;;;;10.73;10.03;;;;;;;;;;5092683;28;20635;-67
2023/09/02 13:54:58;;;;;;;9.87;9.47;;;;;;;;;;5094281;28;20678;-66
2023/09/02 13:57:27;;;;;;;9.33;9.03;;;;;;;;;;5088881;28;20624;-66
2023/09/02 13:59:56;;;;;;;9.90;9.50;;;;;;;;;;5087378;28;20627;-66
2023/09/02 14:02:25;;;;;;;9.60;9.20;;;;;;;;;;5093385;28;20731;-66
2023/09/02 14:04:54;;;;;;;9.83;9.30;;;;;;;;;;5088493;28;20719;-65
2023/09/02 14:07:22;;;;;;;9.20;8.87;;;;;;;;;;5093039;28;20645;-65
2023/09/02 14:09:51;;;;;;;10.00;9.27;;;;;;;;;;5095089;28;20687;-65
2023/09/02 14:12:19;;;;;;;9.20;8.70;;;;;;;;;;5095642;28;20608;-65
2023/09/02 14:14:49;;;;;;;9.37;8.87;;;;;;;;;;5094828;28;20629;-65
2023/09/02 14:17:17;;;;;;;9.40;8.90;;;;;;;;;;5094388;28;20632;-66
2023/09/02 14:19:45;;;;;;;9.13;8.73;;;;;;;;;;5094366;28;20666;-66
2023/09/02 14:22:14;;;;;;;9.17;8.70;;;;;;;;;;5094730;28;20720;-65
2023/09/02 14:24:42;;;;;;;8.90;8.50;;;;;;;;;;5094491;28;20643;-66
2023/09/02 14:27:11;;;;;;;9.20;8.90;;;;;;;;;;5092269;28;20631;-66
2023/09/02 14:29:39;;;;;;;8.80;8.50;;;;;;;;;;5093659;28;20618;-65
2023/09/02 14:32:09;;;;;;;9.30;8.80;;;;;;;;;;5094139;28;20611;-65
2023/09/02 14:34:38;;;;;;;9.87;9.47;;;;;;;;;;5088515;28;20663;-65
2023/09/02 14:37:09;;;;;;;9.60;9.03;;;;;;;;;;5083864;28;20976;-66
2023/09/02 14:39:37;;;;;;;8.83;8.53;;;;;;;;;;5093200;28;20660;-65
2023/09/02 14:42:06;;;;;;;9.20;8.70;;;;;;;;;;5093635;28;20631;-65
2023/09/02 14:44:36;;;;;;;9.33;8.93;;;;;;;;;;5092882;28;20621;-65
2023/09/02 14:47:06;;;;;;;8.80;8.50;;;;;;;;;;5092855;28;21243;-65
2023/09/02 14:49:36;;;;;;;10.03;9.20;;;;;;;;;;5093945;28;20738;-67
2023/09/02 14:52:04;;;;;;;9.50;9.10;;;;;;;;;;5093754;28;20607;-65
2023/09/02 14:54:33;;;;;;;9.67;9.17;;;;;;;;;;5086555;28;20647;-65
2023/09/02 14:57:02;;;;;;;9.43;9.03;;;;;;;;;;5093575;28;20699;-65